Time;durP1;ratioP1;P1;durP2;ratioP2;P2;SDS_P1;SDS_P2;PMS_P1;PMS_P2;Temp;Humidity;BMP_temperature;BMP_pressure;BME280_temperature;BME280_humidity;BME280_pressure;Samples;Min_cycle;Max_cycle;Signal;HPM_P1;HPM_P2
2023/08/30 00:01:54;;;;;;;4.93;3.97;;;13.70;99.90;;;;;;5096240;28;20462;-58
2023/08/30 00:04:21;;;;;;;4.80;4.40;;;13.70;99.90;;;;;;5095020;28;20936;-60
2023/08/30 00:06:49;;;;;;;5.20;4.60;;;13.70;99.90;;;;;;5095197;28;20860;-59
2023/08/30 00:09:16;;;;;;;4.90;4.40;;;13.60;99.90;;;;;;5094771;28;20888;-60
2023/08/30 00:11:42;;;;;;;4.60;3.90;;;13.70;99.90;;;;;;5094389;28;20477;-59
2023/08/30 00:14:09;;;;;;;5.57;4.40;;;13.60;99.90;;;;;;5094496;28;20445;-60
2023/08/30 00:16:38;;;;;;;5.23;4.70;;;13.60;99.90;;;;;;5094848;28;20569;-60
2023/08/30 00:19:04;;;;;;;6.00;4.73;;;13.60;99.90;;;;;;5095522;28;20504;-60
2023/08/30 00:21:31;;;;;;;4.63;4.23;;;13.50;99.90;;;;;;5094617;28;20461;-60
2023/08/30 00:24:00;;;;;;;6.73;4.73;;;13.50;99.90;;;;;;5094656;28;20441;-60
2023/08/30 00:26:27;;;;;;;4.70;4.20;;;13.50;99.90;;;;;;5094447;28;20431;-59
2023/08/30 00:28:53;;;;;;;5.50;4.90;;;13.40;99.90;;;;;;5098483;28;20976;-60
2023/08/30 00:31:20;;;;;;;4.90;4.43;;;13.40;99.90;;;;;;5099228;28;20442;-59
2023/08/30 00:33:47;;;;;;;4.80;4.30;;;13.30;99.90;;;;;;5098704;28;21010;-60
2023/08/30 00:36:14;;;;;;;5.40;4.47;;;13.30;99.90;;;;;;5098991;28;20473;-60
2023/08/30 00:38:41;;;;;;;5.03;4.63;;;13.30;99.90;;;;;;5099237;28;20437;-59
2023/08/30 00:41:09;;;;;;;6.73;4.57;;;13.20;99.90;;;;;;5098646;28;20446;-58
2023/08/30 00:43:35;;;;;;;4.90;4.30;;;13.20;99.90;;;;;;5098922;28;20935;-59
2023/08/30 00:46:02;;;;;;;6.10;5.30;;;13.20;99.90;;;;;;5110216;28;20442;-60
2023/08/30 00:48:29;;;;;;;4.87;4.47;;;13.10;99.90;;;;;;5110671;28;20429;-59
2023/08/30 00:50:56;;;;;;;5.23;4.73;;;13.10;99.90;;;;;;5105717;28;20807;-60
2023/08/30 00:53:23;;;;;;;11.10;4.87;;;13.10;99.90;;;;;;5108784;28;20457;-59
2023/08/30 00:55:50;;;;;;;5.43;4.90;;;13.10;99.90;;;;;;5106063;28;20445;-60
2023/08/30 00:58:18;;;;;;;4.87;4.40;;;13.00;99.90;;;;;;5102038;28;20480;-59
2023/08/30 01:00:47;;;;;;;5.07;4.57;;;13.00;99.90;;;;;;5106275;28;20442;-60
2023/08/30 01:03:14;;;;;;;5.47;4.97;;;13.00;99.90;;;;;;5108343;28;20466;-60
2023/08/30 01:05:40;;;;;;;10.30;5.03;;;12.90;99.90;;;;;;5109608;28;20440;-60
2023/08/30 01:08:07;;;;;;;6.03;4.83;;;12.90;99.90;;;;;;5109795;28;20430;-59
2023/08/30 01:10:47;;;;;;;4.97;4.53;;;12.80;99.90;;;;;;5101387;28;20465;-57
2023/08/30 01:13:19;;;;;;;5.37;4.87;;;12.80;99.90;;;;;;5100201;28;20991;-60
2023/08/30 01:15:48;;;;;;;5.70;5.20;;;12.80;99.90;;;;;;5099137;28;20426;-60
2023/08/30 01:18:19;;;;;;;5.67;5.17;;;12.70;99.90;;;;;;5098539;28;20478;-60
2023/08/30 01:20:47;;;;;;;5.47;4.97;;;12.70;99.90;;;;;;5098433;28;20434;-59
2023/08/30 01:23:30;;;;;;;5.00;4.60;;;12.70;99.90;;;;;;5097876;28;20464;-60
2023/08/30 01:26:05;;;;;;;5.30;4.80;;;12.60;99.90;;;;;;5097896;28;20431;-59
2023/08/30 01:28:34;;;;;;;5.57;5.07;;;12.50;99.90;;;;;;5097430;28;20918;-59
2023/08/30 01:31:01;;;;;;;5.57;5.07;;;12.50;99.90;;;;;;5097493;28;20475;-59
2023/08/30 01:33:28;;;;;;;6.23;5.63;;;12.50;99.90;;;;;;5097165;28;20544;-60
2023/08/30 01:35:58;;;;;;;6.20;5.60;;;12.50;99.90;;;;;;5097692;28;20452;-58
2023/08/30 01:38:25;;;;;;;5.80;5.30;;;12.50;99.90;;;;;;5096933;28;20473;-59
2023/08/30 01:40:53;;;;;;;6.43;5.40;;;12.40;99.90;;;;;;5097159;28;20449;-59
2023/08/30 01:43:21;;;;;;;4.87;4.40;;;12.40;99.90;;;;;;5097343;28;20811;-59
2023/08/30 01:45:49;;;;;;;5.83;5.33;;;12.40;99.90;;;;;;5097397;28;20438;-60
2023/08/30 01:48:17;;;;;;;5.87;5.33;;;12.40;99.90;;;;;;5096935;28;20442;-59
2023/08/30 01:50:46;;;;;;;8.60;5.80;;;12.30;99.90;;;;;;5096946;28;20438;-60
2023/08/30 01:53:14;;;;;;;6.50;5.07;;;12.40;99.90;;;;;;5096975;28;20465;-60
2023/08/30 01:55:41;;;;;;;8.50;5.20;;;12.40;99.90;;;;;;5096761;28;20810;-58
2023/08/30 01:58:09;;;;;;;6.00;5.23;;;12.30;99.90;;;;;;5097164;28;20477;-60
2023/08/30 02:00:36;;;;;;;6.07;5.47;;;12.30;99.90;;;;;;5097015;28;20442;-60
2023/08/30 02:03:10;;;;;;;5.60;5.07;;;12.30;99.90;;;;;;5097014;28;21010;-59
2023/08/30 02:05:41;;;;;;;6.50;5.90;;;12.30;99.90;;;;;;5097063;28;20425;-59
2023/08/30 02:08:15;;;;;;;5.50;5.00;;;12.20;99.90;;;;;;5096352;28;20907;-59
2023/08/30 02:10:46;;;;;;;6.00;5.50;;;12.20;99.90;;;;;;5096960;28;20831;-59
2023/08/30 02:13:14;;;;;;;5.60;5.10;;;12.20;99.90;;;;;;5096457;28;20635;-59
2023/08/30 02:15:42;;;;;;;5.57;5.07;;;12.20;99.90;;;;;;5071689;22;20492;-58
2023/08/30 02:18:11;;;;;;;6.03;5.43;;;12.20;99.90;;;;;;5035089;28;20843;-59
2023/08/30 02:20:37;;;;;;;5.97;5.47;;;12.20;99.90;;;;;;5035478;28;20448;-59
2023/08/30 02:23:04;;;;;;;5.53;4.93;;;12.10;99.90;;;;;;5035289;28;20544;-59
2023/08/30 02:25:31;;;;;;;5.70;5.20;;;12.20;99.90;;;;;;5034987;28;20465;-59
2023/08/30 02:27:58;;;;;;;5.43;4.97;;;12.10;99.90;;;;;;5034770;28;20752;-60
2023/08/30 02:30:24;;;;;;;6.00;4.77;;;12.10;99.90;;;;;;5035003;28;20441;-59
2023/08/30 02:32:51;;;;;;;5.20;4.80;;;12.10;99.90;;;;;;5034662;28;20444;-59
2023/08/30 02:35:19;;;;;;;6.77;5.87;;;12.10;99.90;;;;;;5034768;28;20467;-59
2023/08/30 02:37:46;;;;;;;5.50;5.00;;;12.10;99.90;;;;;;5034607;28;20477;-59
2023/08/30 02:40:13;;;;;;;5.77;5.27;;;12.00;99.90;;;;;;5035345;28;20456;-59
2023/08/30 02:42:40;;;;;;;7.83;4.50;;;12.00;99.90;;;;;;5034736;28;20946;-59
2023/08/30 02:45:07;;;;;;;6.50;5.90;;;12.00;99.90;;;;;;5034588;28;20461;-58
2023/08/30 02:47:34;;;;;;;6.20;5.70;;;12.00;99.90;;;;;;5034441;28;20440;-59
2023/08/30 02:50:01;;;;;;;6.27;5.10;;;12.00;99.90;;;;;;5033801;28;20788;-59
2023/08/30 02:52:29;;;;;;;5.70;5.20;;;11.90;99.90;;;;;;5033830;28;20451;-59
2023/08/30 02:54:55;;;;;;;5.87;5.37;;;11.90;99.90;;;;;;5034139;28;20457;-60
2023/08/30 02:57:22;;;;;;;5.93;5.50;;;11.90;99.90;;;;;;5033940;28;20788;-59
2023/08/30 02:59:49;;;;;;;6.47;5.87;;;11.90;99.90;;;;;;5034059;28;20445;-59
2023/08/30 03:02:16;;;;;;;5.97;5.47;;;11.90;99.90;;;;;;5034176;28;20460;-59
2023/08/30 03:04:42;;;;;;;6.13;5.63;;;11.90;99.90;;;;;;5033863;28;20472;-59
2023/08/30 03:07:09;;;;;;;6.40;5.90;;;11.90;99.90;;;;;;5033925;28;20448;-59
2023/08/30 03:09:38;;;;;;;6.40;5.70;;;11.90;99.90;;;;;;5034173;28;20448;-58
2023/08/30 03:12:06;;;;;;;12.73;6.33;;;11.90;99.90;;;;;;5033561;28;20827;-59
2023/08/30 03:14:32;;;;;;;10.53;6.60;;;11.90;99.90;;;;;;5033604;28;20468;-59
2023/08/30 03:16:59;;;;;;;6.73;6.13;;;11.90;99.90;;;;;;5033912;28;20452;-59
2023/08/30 03:19:26;;;;;;;7.10;5.80;;;11.90;99.90;;;;;;5033810;28;20447;-60
2023/08/30 03:21:52;;;;;;;7.50;6.13;;;12.00;99.90;;;;;;5033802;28;20441;-58
2023/08/30 03:24:19;;;;;;;6.70;6.00;;;11.90;99.90;;;;;;5033644;28;20464;-59
2023/08/30 03:26:47;;;;;;;6.60;6.00;;;11.90;99.90;;;;;;5033995;28;20445;-59
2023/08/30 03:29:14;;;;;;;7.87;6.97;;;11.90;99.90;;;;;;5033420;28;20444;-60
2023/08/30 03:31:43;;;;;;;6.57;5.97;;;11.90;99.90;;;;;;5033523;28;20444;-59
2023/08/30 03:34:10;;;;;;;8.07;7.03;;;11.90;99.90;;;;;;5033588;28;20460;-58
2023/08/30 03:36:36;;;;;;;7.37;6.77;;;11.80;99.90;;;;;;5033098;28;20448;-58
2023/08/30 03:39:03;;;;;;;7.47;6.77;;;11.80;99.90;;;;;;5032987;28;20487;-58
2023/08/30 03:41:30;;;;;;;7.50;6.80;;;11.80;99.90;;;;;;5033597;28;20451;-58
2023/08/30 03:43:58;;;;;;;6.70;6.10;;;11.80;99.90;;;;;;5033493;28;20444;-58
2023/08/30 03:46:25;;;;;;;7.27;6.67;;;11.80;99.90;;;;;;5033077;28;20939;-57
2023/08/30 03:48:52;;;;;;;6.23;5.73;;;11.80;99.90;;;;;;5033404;28;20445;-58
2023/08/30 03:51:18;;;;;;;6.20;5.60;;;11.80;99.90;;;;;;5033395;28;20810;-58
2023/08/30 03:53:45;;;;;;;8.20;6.07;;;11.90;99.90;;;;;;5032980;28;20942;-59
2023/08/30 03:56:12;;;;;;;7.37;6.50;;;11.80;99.90;;;;;;5033131;28;20502;-59
2023/08/30 03:58:39;;;;;;;11.23;6.80;;;11.90;99.90;;;;;;5033067;28;20535;-58
2023/08/30 04:01:07;;;;;;;6.93;6.33;;;11.90;99.90;;;;;;5033099;28;20452;-58
2023/08/30 04:03:34;;;;;;;7.30;6.37;;;11.90;99.90;;;;;;5032940;28;20480;-58
2023/08/30 04:06:01;;;;;;;8.47;6.43;;;11.90;99.90;;;;;;5032736;28;20461;-58
2023/08/30 04:08:27;;;;;;;6.87;6.13;;;11.90;99.90;;;;;;5032909;28;20446;-57
2023/08/30 04:12:09;;;;;;;8.23;7.43;;;12.00;99.90;;;;;;5132595;27;20595;-60
2023/08/30 04:14:35;;;;;;;7.50;6.80;;;12.00;99.90;;;;;;5133570;27;20822;-60
2023/08/30 04:17:02;;;;;;;8.37;7.10;;;12.10;99.90;;;;;;5132763;27;20444;-60
2023/08/30 04:19:29;;;;;;;6.87;6.27;;;12.10;99.90;;;;;;5130881;27;20991;-60
2023/08/30 04:21:55;;;;;;;6.97;6.37;;;12.10;99.90;;;;;;5131271;27;20447;-60
2023/08/30 04:24:21;;;;;;;7.40;6.70;;;12.10;99.90;;;;;;5131168;27;20456;-60
2023/08/30 04:26:51;;;;;;;7.33;6.63;;;12.10;99.90;;;;;;5131996;27;20561;-60
2023/08/30 04:29:19;;;;;;;7.10;6.50;;;12.10;99.90;;;;;;5130768;27;20493;-60
2023/08/30 04:31:46;;;;;;;7.70;7.10;;;12.20;99.90;;;;;;5130870;27;20472;-60
2023/08/30 04:34:12;;;;;;;7.10;6.40;;;12.20;99.90;;;;;;5130702;27;20467;-60
2023/08/30 04:36:39;;;;;;;7.80;7.10;;;12.20;99.90;;;;;;5130993;27;20436;-61
2023/08/30 04:39:06;;;;;;;7.50;6.83;;;12.30;99.90;;;;;;5130919;27;20448;-61
2023/08/30 04:41:33;;;;;;;7.47;6.77;;;12.30;99.90;;;;;;5130991;27;20432;-61
2023/08/30 04:44:00;;;;;;;7.17;6.57;;;12.30;99.90;;;;;;5130648;27;20473;-61
2023/08/30 04:46:28;;;;;;;9.73;6.20;;;12.30;99.90;;;;;;5130398;27;20444;-61
2023/08/30 04:48:55;;;;;;;7.73;7.03;;;12.40;99.90;;;;;;5130416;27;20437;-60
2023/08/30 04:51:21;;;;;;;7.57;6.83;;;12.40;99.90;;;;;;5130245;27;20851;-60
2023/08/30 04:53:48;;;;;;;7.70;6.97;;;12.50;99.90;;;;;;5130668;27;20437;-60
2023/08/30 04:56:17;;;;;;;9.13;6.30;;;12.60;99.90;;;;;;5130603;27;20440;-60
2023/08/30 04:58:45;;;;;;;7.40;6.70;;;12.70;99.90;;;;;;5130182;27;20517;-60
2023/08/30 05:01:13;;;;;;;7.70;7.00;;;12.90;99.90;;;;;;5130178;27;20470;-60
2023/08/30 05:03:41;;;;;;;8.43;6.80;;;13.00;99.90;;;;;;5130349;27;20485;-60
2023/08/30 05:06:07;;;;;;;6.93;6.33;;;13.20;99.90;;;;;;5130430;27;20497;-61
2023/08/30 05:08:34;;;;;;;7.70;6.60;;;13.50;99.90;;;;;;5130534;27;20450;-62
2023/08/30 05:11:02;;;;;;;6.60;6.00;;;13.70;99.90;;;;;;5130605;27;20487;-60
2023/08/30 05:13:29;;;;;;;6.17;5.67;;;13.90;99.90;;;;;;5131292;27;20447;-62
2023/08/30 05:15:56;;;;;;;5.67;5.17;;;14.20;99.90;;;;;;5131524;27;20460;-61
2023/08/30 05:18:23;;;;;;;6.67;5.17;;;14.40;99.90;;;;;;5131414;27;20447;-61
2023/08/30 05:20:51;;;;;;;6.20;5.30;;;14.50;99.90;;;;;;5133390;27;20794;-60
2023/08/30 05:23:17;;;;;;;5.13;4.73;;;14.60;99.90;;;;;;5119026;27;20468;-60
2023/08/30 05:25:44;;;;;;;7.03;5.00;;;14.50;99.90;;;;;;5118217;28;20543;-61
2023/08/30 05:28:11;;;;;;;6.97;5.50;;;14.50;99.90;;;;;;5118786;27;20441;-62
2023/08/30 05:30:41;;;;;;;6.47;5.03;;;14.60;99.90;;;;;;5120212;28;20572;-62
2023/08/30 05:33:08;;;;;;;5.80;4.83;;;14.50;99.90;;;;;;5120268;28;20448;-62
2023/08/30 05:35:35;;;;;;;5.77;5.30;;;14.50;99.90;;;;;;5119449;28;20871;-62
2023/08/30 05:38:03;;;;;;;5.90;5.43;;;14.50;99.90;;;;;;5118838;27;20452;-61
2023/08/30 05:40:29;;;;;;;5.57;4.90;;;14.60;99.90;;;;;;5119521;28;20433;-61
2023/08/30 05:42:56;;;;;;;5.37;4.97;;;14.60;99.90;;;;;;5117235;27;20541;-62
2023/08/30 05:45:23;;;;;;;6.90;5.67;;;14.70;99.90;;;;;;5115639;28;20476;-62
2023/08/30 05:47:50;;;;;;;4.80;4.40;;;14.70;99.90;;;;;;5115832;28;20445;-62
2023/08/30 05:50:16;;;;;;;5.77;5.27;;;14.80;99.90;;;;;;5115605;28;20437;-61
2023/08/30 05:52:44;;;;;;;7.43;5.37;;;14.80;99.90;;;;;;5116372;28;20448;-62
2023/08/30 05:55:12;;;;;;;5.17;4.67;;;14.80;99.90;;;;;;5115623;28;20469;-62
2023/08/30 05:57:39;;;;;;;4.67;4.27;;;14.70;99.90;;;;;;5115766;28;20442;-63
2023/08/30 06:00:08;;;;;;;11.13;5.40;;;14.70;99.90;;;;;;5115423;28;20445;-60
2023/08/30 06:02:35;;;;;;;5.63;5.13;;;14.80;99.90;;;;;;5115360;28;20437;-62
2023/08/30 06:05:02;;;;;;;5.67;5.17;;;14.70;99.90;;;;;;5115671;28;20453;-62
2023/08/30 06:07:29;;;;;;;6.03;5.43;;;14.70;99.90;;;;;;5115263;28;20447;-61
2023/08/30 06:09:56;;;;;;;6.30;5.80;;;14.70;99.90;;;;;;5115234;28;20520;-62
2023/08/30 06:12:25;;;;;;;8.23;5.63;;;14.70;99.90;;;;;;5115851;28;20461;-61
2023/08/30 06:14:52;;;;;;;5.50;5.00;;;14.70;99.90;;;;;;5115148;28;20885;-63
2023/08/30 06:17:20;;;;;;;5.40;5.00;;;14.80;99.90;;;;;;5115263;28;20915;-64
2023/08/30 06:19:47;;;;;;;5.07;4.67;;;15.00;99.90;;;;;;5115190;28;20966;-62
2023/08/30 06:22:14;;;;;;;6.30;5.30;;;15.10;99.90;;;;;;5115503;28;20440;-62
2023/08/30 06:24:40;;;;;;;6.97;5.60;;;15.20;99.90;;;;;;5115123;28;20461;-62
2023/08/30 06:27:07;;;;;;;5.57;5.07;;;15.30;99.90;;;;;;5115288;28;20441;-62
2023/08/30 06:29:36;;;;;;;5.63;5.17;;;15.40;99.90;;;;;;5115029;28;20447;-62
2023/08/30 06:32:03;;;;;;;8.73;5.87;;;15.40;99.90;;;;;;5115105;28;20526;-62
2023/08/30 06:34:30;;;;;;;5.70;5.10;;;15.50;99.90;;;;;;5114293;28;20496;-62
2023/08/30 06:36:57;;;;;;;5.70;5.20;;;15.40;99.90;;;;;;5114973;27;20437;-61
2023/08/30 06:39:23;;;;;;;8.10;5.63;;;15.50;99.90;;;;;;5115724;28;20444;-62
2023/08/30 06:41:50;;;;;;;5.67;5.20;;;15.60;99.90;;;;;;5115793;28;20468;-62
2023/08/30 06:44:17;;;;;;;5.60;5.10;;;15.80;99.90;;;;;;5115661;28;20460;-61
2023/08/30 06:46:46;;;;;;;7.07;5.00;;;15.90;99.90;;;;;;5115330;28;20441;-61
2023/08/30 06:49:13;;;;;;;6.13;5.63;;;16.00;99.90;;;;;;5115091;28;20433;-62
2023/08/30 06:51:39;;;;;;;6.00;5.50;;;16.00;99.90;;;;;;5114588;28;20994;-63
2023/08/30 06:54:06;;;;;;;5.80;5.30;;;16.00;99.90;;;;;;5115345;28;20465;-62
2023/08/30 06:56:33;;;;;;;5.40;4.90;;;16.00;99.90;;;;;;5114783;28;20806;-62
2023/08/30 06:59:00;;;;;;;5.30;4.83;;;16.10;99.90;;;;;;5114334;28;20930;-62
2023/08/30 07:01:26;;;;;;;6.27;5.67;;;16.30;99.90;;;;;;5114131;28;20438;-62
2023/08/30 07:03:54;;;;;;;5.20;4.77;;;16.40;99.90;;;;;;5114374;28;20464;-62
2023/08/30 07:06:21;;;;;;;5.17;4.67;;;16.60;99.90;;;;;;5114004;28;20515;-63
2023/08/30 07:08:48;;;;;;;5.53;5.03;;;16.80;99.90;;;;;;5115975;28;20495;-63
2023/08/30 07:11:15;;;;;;;5.73;5.03;;;17.00;99.90;;;;;;5117422;28;21009;-63
2023/08/30 07:13:41;;;;;;;6.33;5.70;;;17.10;99.90;;;;;;5116161;28;20434;-63
2023/08/30 07:16:08;;;;;;;5.60;5.00;;;17.10;99.90;;;;;;5114049;28;20461;-62
2023/08/30 07:18:35;;;;;;;6.37;4.97;;;17.10;99.90;;;;;;5113836;28;20955;-61
2023/08/30 07:21:03;;;;;;;7.00;5.47;;;17.20;99.90;;;;;;5114587;28;20440;-62
2023/08/30 07:23:30;;;;;;;7.10;5.30;;;17.30;99.90;;;;;;5113951;28;20437;-63
2023/08/30 07:25:57;;;;;;;6.70;6.10;;;17.40;99.90;;;;;;5113829;28;20456;-61
2023/08/30 07:28:24;;;;;;;5.27;4.73;;;17.60;99.90;;;;;;5113908;27;20444;-62
2023/08/30 07:30:51;;;;;;;9.10;5.80;;;17.70;99.90;;;;;;5114076;28;20472;-61
2023/08/30 07:33:17;;;;;;;6.40;5.83;;;17.80;99.90;;;;;;5114203;28;20445;-61
2023/08/30 07:35:44;;;;;;;5.80;5.30;;;17.90;99.90;;;;;;5114111;28;20457;-62
2023/08/30 07:38:12;;;;;;;5.90;5.40;;;18.10;99.90;;;;;;5113753;28;20923;-62
2023/08/30 07:40:39;;;;;;;8.43;5.30;;;18.20;99.90;;;;;;5113608;28;20441;-61
2023/08/30 07:43:05;;;;;;;9.60;5.70;;;18.40;99.90;;;;;;5114784;28;20437;-63
2023/08/30 07:45:32;;;;;;;7.20;6.50;;;18.40;99.90;;;;;;5114573;28;20461;-62
2023/08/30 07:47:59;;;;;;;6.77;6.07;;;18.30;99.90;;;;;;5114573;28;20438;-62
2023/08/30 07:50:26;;;;;;;5.60;5.10;;;18.20;99.90;;;;;;5114189;28;20444;-61
2023/08/30 07:52:52;;;;;;;6.90;5.47;;;18.20;99.90;;;;;;5113673;28;20469;-61
2023/08/30 07:55:20;;;;;;;6.70;6.07;;;18.20;99.90;;;;;;5113331;28;20460;-62
2023/08/30 07:57:47;;;;;;;8.07;6.83;;;18.40;99.90;;;;;;5113550;28;20931;-62
2023/08/30 08:00:14;;;;;;;6.03;5.53;;;18.60;99.90;;;;;;5113732;28;20444;-63
2023/08/30 08:02:41;;;;;;;8.00;7.07;;;18.70;99.90;;;;;;5113585;28;20437;-63
2023/08/30 08:05:09;;;;;;;7.33;6.60;;;18.90;99.90;;;;;;5113247;28;20989;-61
2023/08/30 08:07:39;;;;;;;6.60;6.00;;;19.00;99.40;;;;;;5113863;28;20437;-62
2023/08/30 08:10:06;;;;;;;8.30;6.53;;;19.10;99.00;;;;;;5113336;28;20449;-62
2023/08/30 08:12:35;;;;;;;7.60;6.23;;;19.20;98.60;;;;;;5113432;28;20488;-61
2023/08/30 08:15:02;;;;;;;7.23;6.53;;;19.30;98.10;;;;;;5115330;28;20473;-62
2023/08/30 08:17:29;;;;;;;8.23;7.43;;;19.30;97.40;;;;;;5115126;28;20444;-62
2023/08/30 08:19:56;;;;;;;7.70;6.87;;;19.30;96.80;;;;;;5114568;28;20441;-62
2023/08/30 08:22:23;;;;;;;7.00;5.80;;;19.30;96.20;;;;;;5114497;28;20441;-62
2023/08/30 08:24:53;;;;;;;6.53;5.60;;;19.30;96.10;;;;;;5114182;28;20511;-61
2023/08/30 08:27:20;;;;;;;8.67;5.70;;;19.40;95.90;;;;;;5115000;28;20857;-62
2023/08/30 08:29:48;;;;;;;9.30;6.17;;;19.50;95.60;;;;;;5114985;28;20444;-62
2023/08/30 08:32:15;;;;;;;6.20;5.60;;;19.70;95.30;;;;;;5114938;28;20499;-63
2023/08/30 08:34:41;;;;;;;19.10;6.67;;;19.80;94.90;;;;;;5114703;28;20465;-62
2023/08/30 08:37:08;;;;;;;6.37;5.73;;;20.00;94.40;;;;;;5114856;28;20445;-62
2023/08/30 08:39:36;;;;;;;6.97;6.37;;;20.10;93.60;;;;;;5113530;28;20777;-63
2023/08/30 08:42:04;;;;;;;8.00;6.40;;;20.30;93.20;;;;;;5113430;28;20444;-62
2023/08/30 08:44:33;;;;;;;8.37;7.47;;;20.30;92.80;;;;;;5113641;28;20463;-62
2023/08/30 08:47:02;;;;;;;9.07;8.17;;;20.50;92.50;;;;;;5113405;28;20442;-62
2023/08/30 08:49:31;;;;;;;7.97;7.27;;;20.60;91.80;;;;;;5113486;28;20535;-62
2023/08/30 08:51:58;;;;;;;10.70;7.70;;;20.60;91.20;;;;;;5113086;28;21006;-62
2023/08/30 08:54:25;;;;;;;9.40;8.13;;;20.60;91.10;;;;;;5113139;28;20897;-62
2023/08/30 08:56:53;;;;;;;10.70;8.33;;;20.70;90.70;;;;;;5113692;28;20445;-62
2023/08/30 08:59:22;;;;;;;10.30;7.60;;;20.80;90.20;;;;;;5116827;28;20799;-63
2023/08/30 09:01:50;;;;;;;8.07;7.27;;;20.90;89.10;;;;;;5116910;27;20821;-63
2023/08/30 09:04:18;;;;;;;9.73;8.40;;;20.90;88.60;;;;;;5116521;28;20990;-64
2023/08/30 09:06:45;;;;;;;11.30;10.10;;;21.10;87.80;;;;;;5116495;28;20961;-63
2023/08/30 09:09:12;;;;;;;9.27;8.33;;;21.30;86.30;;;;;;5116676;28;20946;-63
2023/08/30 09:11:39;;;;;;;9.43;8.30;;;21.50;84.30;;;;;;5116919;28;20477;-64
2023/08/30 09:14:06;;;;;;;10.90;9.47;;;21.60;82.60;;;;;;5116847;28;20465;-65
2023/08/30 09:16:33;;;;;;;12.40;7.77;;;21.50;81.50;;;;;;5116838;28;20864;-63
2023/08/30 09:19:00;;;;;;;8.97;7.97;;;21.60;80.90;;;;;;5116618;28;20515;-63
2023/08/30 09:21:28;;;;;;;13.43;9.50;;;21.80;80.50;;;;;;5116702;28;20434;-66
2023/08/30 09:23:59;;;;;;;10.47;7.60;;;21.90;78.10;;;;;;5116904;28;20448;-64
2023/08/30 09:26:27;;;;;;;9.47;7.90;;;22.10;76.80;;;;;;5118096;27;20463;-63
2023/08/30 09:28:54;;;;;;;10.00;7.77;;;22.10;76.00;;;;;;5117689;28;20455;-63
2023/08/30 09:31:21;;;;;;;9.10;8.20;;;22.20;75.20;;;;;;5117852;28;20441;-62
2023/08/30 09:33:48;;;;;;;9.40;8.57;;;22.30;75.20;;;;;;5117885;28;20438;-64
2023/08/30 09:36:15;;;;;;;11.10;9.70;;;22.10;74.10;;;;;;5118801;28;20433;-64
2023/08/30 09:38:49;;;;;;;9.80;8.80;;;21.80;74.30;;;;;;5117261;28;20444;-62
2023/08/30 09:41:17;;;;;;;8.70;7.80;;;21.60;75.10;;;;;;5116071;28;20835;-63
2023/08/30 09:43:44;;;;;;;9.80;8.23;;;21.40;76.00;;;;;;5116145;28;20498;-62
2023/08/30 09:46:11;;;;;;;14.40;9.40;;;21.30;76.70;;;;;;5115946;28;20474;-64
2023/08/30 09:48:39;;;;;;;10.40;7.67;;;21.40;77.20;;;;;;5116154;28;20438;-64
2023/08/30 09:51:09;;;;;;;10.23;8.60;;;21.60;76.40;;;;;;5115940;27;20885;-62
2023/08/30 09:53:48;;;;;;;11.70;10.60;;;21.70;75.70;;;;;;5115941;27;20481;-62
2023/08/30 09:56:16;;;;;;;13.20;10.33;;;21.80;75.00;;;;;;5115486;28;20429;-63
2023/08/30 09:58:44;;;;;;;12.00;10.40;;;21.80;73.80;;;;;;5115738;28;20444;-63
2023/08/30 10:01:12;;;;;;;11.53;10.33;;;21.90;73.20;;;;;;5115160;28;20441;-63
2023/08/30 10:03:39;;;;;;;9.87;8.87;;;22.10;72.50;;;;;;5115337;28;20923;-63
2023/08/30 10:06:06;;;;;;;14.17;9.80;;;22.30;71.40;;;;;;5115317;28;20502;-63
2023/08/30 10:08:36;;;;;;;10.20;9.20;;;22.50;70.50;;;;;;5115305;28;20448;-63
2023/08/30 10:11:06;;;;;;;10.50;9.07;;;22.70;69.80;;;;;;5115234;28;20802;-63
2023/08/30 10:13:39;;;;;;;9.57;8.67;;;22.80;69.10;;;;;;5115336;28;20994;-64
2023/08/30 10:16:06;;;;;;;10.27;9.20;;;22.80;68.70;;;;;;5115869;28;20454;-64
2023/08/30 10:18:35;;;;;;;10.77;9.70;;;22.50;68.80;;;;;;5115045;28;20961;-63
2023/08/30 10:21:08;;;;;;;10.90;9.90;;;22.20;69.40;;;;;;5115214;28;20494;-64
2023/08/30 10:23:36;;;;;;;10.27;9.27;;;21.90;70.30;;;;;;5114801;28;20907;-64
2023/08/30 10:26:06;;;;;;;10.80;9.70;;;21.80;71.00;;;;;;5115732;28;20531;-63
2023/08/30 10:28:33;;;;;;;10.63;9.63;;;21.80;71.30;;;;;;5114970;27;20448;-64
2023/08/30 10:31:00;;;;;;;11.60;10.53;;;21.90;71.20;;;;;;5114989;28;20443;-63
2023/08/30 10:33:27;;;;;;;12.37;9.90;;;21.90;70.90;;;;;;5115194;28;20477;-63
2023/08/30 10:35:55;;;;;;;11.70;9.93;;;21.80;70.90;;;;;;5114991;28;20572;-64
2023/08/30 10:38:29;;;;;;;10.03;9.10;;;21.80;71.70;;;;;;5115055;28;20446;-63
2023/08/30 10:40:56;;;;;;;11.20;10.10;;;21.90;71.00;;;;;;5114808;28;20547;-63
2023/08/30 10:43:32;;;;;;;13.97;10.13;;;21.80;70.90;;;;;;5116257;28;20785;-63
2023/08/30 10:46:01;;;;;;;11.47;10.30;;;21.70;71.10;;;;;;5114703;28;20548;-64
2023/08/30 10:48:35;;;;;;;11.03;10.00;;;21.70;71.10;;;;;;5115018;28;20441;-63
2023/08/30 10:51:04;;;;;;;11.73;10.67;;;21.70;70.70;;;;;;5114473;28;20421;-63
2023/08/30 10:53:31;;;;;;;10.50;9.40;;;21.80;70.50;;;;;;5114506;28;20485;-62
2023/08/30 10:56:08;;;;;;;11.73;10.10;;;22.00;70.10;;;;;;5114874;27;20526;-63
2023/08/30 10:58:42;;;;;;;9.77;8.87;;;22.30;69.10;;;;;;5114448;28;20437;-64
2023/08/30 11:01:11;;;;;;;13.20;10.10;;;22.70;68.00;;;;;;5113900;28;20474;-64
2023/08/30 11:03:38;;;;;;;13.30;10.23;;;22.90;66.80;;;;;;5114247;28;20437;-63
2023/08/30 11:06:05;;;;;;;10.10;9.10;;;23.10;66.20;;;;;;5114061;28;20831;-63
2023/08/30 11:08:32;;;;;;;9.57;8.67;;;23.20;65.50;;;;;;5113495;28;20962;-63
2023/08/30 11:11:04;;;;;;;8.60;7.77;;;23.40;65.10;;;;;;5113676;28;20468;-64
2023/08/30 11:13:31;;;;;;;10.87;9.83;;;23.50;64.50;;;;;;5114121;28;20477;-63
2023/08/30 11:16:03;;;;;;;9.97;9.10;;;23.60;63.70;;;;;;5114320;28;20468;-64
2023/08/30 11:18:30;;;;;;;9.77;8.77;;;23.60;63.10;;;;;;5113658;28;20421;-63
2023/08/30 11:21:00;;;;;;;9.37;8.40;;;23.60;62.50;;;;;;5113356;28;20441;-63
2023/08/30 11:23:27;;;;;;;10.20;8.93;;;23.70;61.90;;;;;;5113774;28;20425;-63
2023/08/30 11:25:54;;;;;;;9.27;8.37;;;23.50;61.60;;;;;;5113992;28;20461;-63
2023/08/30 11:28:24;;;;;;;7.70;6.90;;;23.40;61.80;;;;;;5114329;28;20440;-63
2023/08/30 11:30:52;;;;;;;8.37;6.93;;;23.40;61.70;;;;;;5113738;28;20433;-62
2023/08/30 11:33:20;;;;;;;7.43;6.60;;;23.60;61.40;;;;;;5114939;28;20526;-62
2023/08/30 11:35:49;;;;;;;7.77;6.10;;;23.70;60.50;;;;;;5115321;28;20810;-62
2023/08/30 11:38:16;;;;;;;5.73;5.13;;;23.70;60.20;;;;;;5113296;28;20445;-62
2023/08/30 11:40:42;;;;;;;5.53;5.00;;;23.90;59.60;;;;;;5113679;28;20434;-63
2023/08/30 11:43:10;;;;;;;5.53;5.03;;;24.10;58.60;;;;;;5114555;28;20438;-63
2023/08/30 11:45:37;;;;;;;5.77;5.27;;;24.10;57.60;;;;;;5114105;28;20457;-62
2023/08/30 11:48:04;;;;;;;6.40;4.83;;;24.10;57.00;;;;;;5113702;28;20611;-62
2023/08/30 11:50:32;;;;;;;4.90;4.50;;;24.30;56.40;;;;;;5115471;28;20934;-62
2023/08/30 11:52:59;;;;;;;5.97;5.10;;;24.70;55.30;;;;;;5113328;28;20500;-62
2023/08/30 11:55:27;;;;;;;5.90;4.37;;;25.20;53.80;;;;;;5113069;28;20974;-63
2023/08/30 11:57:54;;;;;;;4.90;4.50;;;25.70;52.50;;;;;;5113306;28;20441;-62
2023/08/30 12:00:22;;;;;;;5.77;5.17;;;25.90;50.80;;;;;;5112864;28;20555;-63
2023/08/30 12:02:49;;;;;;;5.20;4.70;;;26.10;50.10;;;;;;5113218;28;20440;-62
2023/08/30 12:05:16;;;;;;;4.60;4.20;;;26.50;49.30;;;;;;5113577;28;20457;-61
2023/08/30 12:07:44;;;;;;;5.03;3.90;;;26.80;48.60;;;;;;5113347;28;20433;-61
2023/08/30 12:10:11;;;;;;;4.97;4.00;;;26.90;48.10;;;;;;5112963;28;20829;-62
2023/08/30 12:12:38;;;;;;;5.83;4.60;;;26.90;47.40;;;;;;5113234;28;20466;-62
2023/08/30 12:15:09;;;;;;;7.20;3.87;;;27.00;46.90;;;;;;5113447;28;20472;-63
2023/08/30 12:17:36;;;;;;;3.77;3.37;;;27.10;46.30;;;;;;5114045;28;20433;-62
2023/08/30 12:20:04;;;;;;;5.53;3.33;;;27.00;45.80;;;;;;5113425;28;20441;-63
2023/08/30 12:22:38;;;;;;;3.67;3.33;;;26.80;45.80;;;;;;5113821;28;20452;-62
2023/08/30 12:25:17;;;;;;;4.80;3.60;;;26.50;45.90;;;;;;5113304;28;20456;-62
2023/08/30 12:27:44;;;;;;;3.97;3.57;;;26.20;46.50;;;;;;5113216;28;20425;-63
2023/08/30 12:30:11;;;;;;;3.87;3.57;;;25.80;47.20;;;;;;5113046;28;20544;-61
2023/08/30 12:32:38;;;;;;;3.77;3.03;;;25.60;47.80;;;;;;5114497;28;20484;-62
2023/08/30 12:35:05;;;;;;;3.90;3.33;;;25.40;47.90;;;;;;5117299;28;20453;-64
2023/08/30 12:37:32;;;;;;;5.37;3.63;;;25.40;47.70;;;;;;5117227;28;20436;-61
2023/08/30 12:39:59;;;;;;;4.53;3.53;;;25.40;47.40;;;;;;5117066;28;20448;-63
2023/08/30 12:42:27;;;;;;;4.53;3.53;;;25.30;47.40;;;;;;5117174;28;20448;-63
2023/08/30 12:44:53;;;;;;;3.87;3.50;;;25.20;47.30;;;;;;5117337;28;20449;-63
2023/08/30 12:47:20;;;;;;;6.13;3.50;;;25.00;47.70;;;;;;5117015;28;20914;-64
2023/08/30 12:49:47;;;;;;;4.10;3.70;;;25.00;47.90;;;;;;5116899;28;20436;-63